Tyler, TX

10:12 AM CST on February 09, 2016 (GMT -0600)
Tyler Pounds | | Change Station
CLOSE
Current Station
Airport
Location: Tyler,
Elevation: 541 ft
Nearby Weather Stations
Active Advisory: Lake Wind Advisory

Elev 541 ft 32.35 °N, 95.40 °W | Updated 19 minutes ago

Clear
Clear
48 °F
Feels Like 48 °F
N
12
Wind Variable Wind from NNW

Today
High -- | Low -- °F
--% Chance of Precip.
Yesterday
High -- | Low -- °F
Precip. -- in
Pressure 30.28 in
Visibility -9999.0 miles
Clouds Clear
Dew Point 15 °F
Humidity 27%
Rainfall 0.00 in
Snow Depth Not available.
7:10 AM 6:01 PM
New Moon, 2% visible
METAR KTYR 091553Z 33010KT CLR 09/M09 A3028 RMK AO2 SLP254 T00891094 $
Pressure 30.28 in
Visibility -9999.0 miles
Clouds Clear
Dew Point 15 °F
Humidity 27%
Rainfall 0.00 in
Snow Depth Not available.
7:10 AM 6:01 PM
New Moon, 2% visible
METAR KTYR 091553Z 33010KT CLR 09/M09 A3028 RMK AO2 SLP254 T00891094 $

10-Day Weather Forecast

Almanac

Astronomy

Feb. 09, 2016 Rise Set
Actual Time
Civil Twilight
Nautical Twilight
Astronomical Twilight
Moon
Length of Visible Light
Length of Day
Tomorrow will be .
, % of the Moon is Illuminated

Today's Extremes

State Highs State Lows

Community

WunderPhotos

Upload Photos

1,891,629 photos uploaded!

WunderBlog® & News

Nearby

Air Quality

  Air Quality AQ Index Pollutant
Not available.

Snow Depth

Station Depth Elevation

Earthquake Activity

City Distance Mag. Time & Date
Minimum magnitude displayed is 2.5.

Coastal Water Temperatures

Place Temperature

Stations

Nearby Weather Stations

Station Location Temp. Windchill Dew Point Humidity Wind Precip. Elev Updated Type
                   

Watches & Warnings

Lake Wind Advisory
Issued: 3:29 AM CST Feb. 9, 2016 – National Weather Service

... Lake Wind Advisory in effect from 9 am this morning to 4 PM
CST this afternoon...

The National Weather Service in Shreveport has issued a lake Wind
Advisory... which is in effect from 9 am this morning to 4 PM CST
this afternoon.

* Event... northwesterly winds will increase to between 15 and 20
mph with gusts up to 25 to 30 mph later this morning. Gusty
winds will persist for much of the day before wind speeds
gradually diminish late this afternoon.

* Timing... from 9 am CST to 4 PM CST today.

* Impact... boaters should exercise caution on area lakes due to
rough conditions.

Precautionary/preparedness actions...

A lake Wind Advisory indicates that winds will cause rough chop
on area lakes. Small boats will be especially prone to capsizing.



09